MCY weather

Sunshine Coast Airport
Maroochydore, Queensland, Australia

Public forecast

Using degrees Celsius for public forecast. Weather courtesy of forecast.io.

METAR (pilot weather report)

Closest report is Brisbane International Airport, 46.9 nm (86.9 km) S. Retrieved 2018/11/19 19:30 UTC (24 minutes ago):

YBBN 191930Z 20004KT 9999 FEW035 17/13 Q1016 NOSIG

TAF (pilot weather forecast)

Closest forecast is Brisbane International Airport, 46.9 nm (86.9 km) S. Retrieved 2018/11/19 18:33 UTC (1 hour ago):

TAF YBBN 191716Z 1918/2024 18005KT 9999 SCT035 FM192300 03007KT 9999 FEW040 FM200200 03013KT CAVOK FM201000 35010KT CAVOK